Time;durP1;ratioP1;P1;durP2;ratioP2;P2;SDS_P1;SDS_P2;PMS_P1;PMS_P2;Temp;Humidity;BMP_temperature;BMP_pressure;BME280_temperature;BME280_humidity;BME280_pressure;Samples;Min_cycle;Max_cycle;Signal;HPM_P1;HPM_P2
2020/12/31 00:00:18;;;;;;;34.95;15.75;;;;;;;0.72;70.28;98111.49;120109;1144;65133;-88
2020/12/31 00:02:59;;;;;;;39.83;16.47;;;;;;;0.69;70.84;98116.88;120013;1144;65117;-92
2020/12/31 00:05:26;;;;;;;45.27;17.30;;;;;;;0.64;70.30;98112.79;119952;1144;65130;-90
2020/12/31 00:07:52;;;;;;;44.13;17.80;;;;;;;0.62;70.42;98118.09;120202;1143;65091;-91
2020/12/31 00:10:18;;;;;;;43.00;16.97;;;;;;;0.63;70.78;98114.53;120116;1145;65116;-90
2020/12/31 00:12:45;;;;;;;30.45;13.53;;;;;;;0.70;71.46;98117.73;119899;1144;65202;-90
2020/12/31 00:15:12;;;;;;;26.47;12.17;;;;;;;0.73;70.71;98121.08;119831;1144;65098;-89
2020/12/31 00:17:38;;;;;;;34.13;14.13;;;;;;;0.71;70.31;98124.71;119945;1144;65326;-94
2020/12/31 00:20:07;;;;;;;36.97;15.53;;;;;;;0.67;69.94;98126.62;119947;1143;65066;-92
2020/12/31 00:22:33;;;;;;;32.23;14.37;;;;;;;0.65;70.28;98131.10;119883;1144;65146;-90
2020/12/31 00:24:59;;;;;;;19.50;12.10;;;;;;;0.63;70.72;98125.05;120407;1144;65201;-89
2020/12/31 00:27:26;;;;;;;23.23;12.67;;;;;;;0.67;71.06;98126.62;120266;1144;65093;-88
2020/12/31 00:29:52;;;;;;;24.85;11.40;;;;;;;0.69;70.69;98127.39;120165;1144;65177;-90
2020/12/31 00:32:19;;;;;;;28.10;13.00;;;;;;;0.69;70.55;98132.64;120020;1144;65092;-90
2020/12/31 00:34:45;;;;;;;28.27;12.97;;;;;;;0.69;70.15;98135.27;119879;1143;65168;-90
2020/12/31 00:37:11;;;;;;;29.57;12.67;;;;;;;0.71;71.00;98135.22;119917;1144;65134;-90
2020/12/31 00:39:38;;;;;;;28.35;13.10;;;;;;;0.71;70.61;98135.22;119949;1143;65066;-89
2020/12/31 00:42:04;;;;;;;30.05;12.15;;;;;;;0.68;70.52;98138.83;119910;1144;65185;-90
2020/12/31 00:44:31;;;;;;;29.43;12.70;;;;;;;0.67;70.66;98131.88;119891;1142;65020;-90
2020/12/31 00:46:57;;;;;;;26.87;11.67;;;;;;;0.66;71.09;98138.06;119877;1144;65095;-94
2020/12/31 00:49:23;;;;;;;22.50;11.40;;;;;;;0.65;70.89;98140.77;119931;1144;65124;-89
2020/12/31 00:51:50;;;;;;;27.97;11.93;;;;;;;0.67;70.81;98139.75;119835;1144;65087;-90
2020/12/31 00:54:17;;;;;;;26.53;12.27;;;;;;;0.71;71.19;98143.11;119879;1144;65069;-90
2020/12/31 00:56:44;;;;;;;23.53;11.50;;;;;;;0.75;70.98;98145.50;119911;1144;65507;-93
2020/12/31 00:59:11;;;;;;;24.70;11.43;;;;;;;0.75;70.57;98134.98;119876;1144;65098;-88
2020/12/31 01:01:37;;;;;;;27.17;12.57;;;;;;;0.76;71.12;98146.34;119834;1144;64996;-91
2020/12/31 01:04:03;;;;;;;26.77;12.70;;;;;;;0.76;71.14;98141.09;119895;1144;65041;-89
2020/12/31 01:06:37;;;;;;;22.73;11.20;;;;;;;0.77;70.59;98146.30;119872;1144;65037;-89
2020/12/31 01:09:08;;;;;;;26.70;12.50;;;;;;;0.76;71.07;98139.34;119884;1144;65429;-89
2020/12/31 01:11:38;;;;;;;21.93;11.50;;;;;;;0.77;70.69;98142.81;119932;1144;65168;-89
2020/12/31 01:14:08;;;;;;;23.63;11.60;;;;;;;0.75;71.02;98142.87;119966;1143;65097;-90
2020/12/31 01:16:34;;;;;;;23.13;11.30;;;;;;;0.73;70.85;98142.09;119923;1144;65114;-89
2020/12/31 01:19:02;;;;;;;20.83;11.27;;;;;;;0.77;71.54;98148.92;119873;1143;65098;-89
2020/12/31 01:21:28;;;;;;;15.87;10.00;;;;;;;0.77;71.31;98151.55;119933;1144;65088;-93
2020/12/31 01:23:55;;;;;;;18.47;9.93;;;;;;;0.74;71.22;98138.54;119823;1144;65219;-89
2020/12/31 01:26:33;;;;;;;18.95;9.55;;;;;;;0.76;70.67;98141.97;119802;1143;65072;-86
2020/12/31 01:29:00;;;;;;;14.97;7.93;;;;;;;0.81;70.72;98142.58;119893;1144;65139;-88
2020/12/31 01:31:26;;;;;;;16.23;8.27;;;;;;;0.86;70.93;98147.63;119802;1144;65184;-89
2020/12/31 01:33:53;;;;;;;15.30;7.73;;;;;;;0.88;71.09;98145.77;119807;1144;65223;-90
2020/12/31 01:36:19;;;;;;;15.57;6.83;;;;;;;0.90;71.06;98141.31;119799;1143;65089;-92
2020/12/31 01:38:46;;;;;;;20.40;8.77;;;;;;;0.94;71.05;98147.26;119935;1144;65118;-88
2020/12/31 01:41:14;;;;;;;14.67;6.70;;;;;;;0.99;71.04;98145.27;119860;1144;65095;-88
2020/12/31 01:43:41;;;;;;;14.73;7.10;;;;;;;0.97;70.90;98141.87;120029;1144;65082;-90
2020/12/31 01:46:11;;;;;;;12.83;7.37;;;;;;;0.97;71.10;98149.76;119866;1144;65067;-88
2020/12/31 01:48:39;;;;;;;13.40;7.17;;;;;;;1.01;71.01;98146.03;119905;1143;65065;-90
2020/12/31 01:51:06;;;;;;;15.70;7.83;;;;;;;0.98;70.88;98148.83;119927;1143;65567;-89
2020/12/31 01:53:32;;;;;;;15.27;7.40;;;;;;;0.97;70.89;98150.60;119913;1144;65031;-88
2020/12/31 01:56:03;;;;;;;15.40;6.10;;;;;;;0.96;70.99;98148.05;119905;1143;65026;-90
2020/12/31 01:58:30;;;;;;;13.43;6.87;;;;;;;0.97;71.36;98152.39;119941;1142;65089;-90
2020/12/31 02:00:56;;;;;;;11.80;6.95;;;;;;;0.94;71.06;98147.26;119887;1142;65226;-91
2020/12/31 02:03:23;;;;;;;17.57;6.80;;;;;;;0.92;70.86;98152.59;119929;1143;65082;-90
2020/12/31 02:05:49;;;;;;;10.70;6.35;;;;;;;0.90;70.63;98149.20;119918;1144;65130;-90
2020/12/31 02:08:15;;;;;;;16.40;7.83;;;;;;;0.88;70.98;98145.77;119911;1144;65098;-91
2020/12/31 02:10:42;;;;;;;13.97;7.10;;;;;;;0.84;71.26;98148.64;119931;1142;65127;-88
2020/12/31 02:13:08;;;;;;;13.83;7.47;;;;;;;0.81;71.18;98152.24;119876;1143;65093;-91
2020/12/31 02:15:34;;;;;;;15.73;8.03;;;;;;;0.82;71.26;98156.57;119912;1143;65067;-88
2020/12/31 02:18:01;;;;;;;16.80;7.07;;;;;;;0.80;71.25;98154.02;119903;1144;65153;-91
2020/12/31 02:20:27;;;;;;;12.53;7.13;;;;;;;0.78;71.18;98152.41;119933;1144;65092;-89
2020/12/31 02:22:53;;;;;;;14.30;7.97;;;;;;;0.73;71.02;98151.77;119882;1144;65180;-91
2020/12/31 02:25:19;;;;;;;19.60;8.50;;;;;;;0.63;70.68;98150.47;119868;1144;65056;-92
2020/12/31 02:27:46;;;;;;;19.57;8.93;;;;;;;0.52;71.09;98153.61;119876;1143;65192;-89
2020/12/31 02:30:12;;;;;;;20.23;8.50;;;;;;;0.43;71.01;98159.27;119886;1144;65097;-88
2020/12/31 02:32:38;;;;;;;21.02;10.58;;;;;;;0.35;71.33;98156.16;120000;1144;65186;-93
2020/12/31 02:35:05;;;;;;;21.77;11.03;;;;;;;0.24;70.65;98160.09;119920;1144;65123;-92
2020/12/31 02:37:31;;;;;;;24.03;11.10;;;;;;;0.17;71.56;98163.92;119945;1144;65005;-89
2020/12/31 02:39:57;;;;;;;21.00;10.10;;;;;;;0.11;71.27;98158.94;119914;1144;65166;-91
2020/12/31 02:42:24;;;;;;;26.15;11.75;;;;;;;0.14;71.71;98165.84;119935;1144;65082;-90
2020/12/31 02:44:50;;;;;;;16.43;8.30;;;;;;;0.20;71.76;98166.42;119955;1143;65188;-89
2020/12/31 02:47:16;;;;;;;17.03;8.20;;;;;;;0.28;71.33;98170.48;119843;1144;65084;-89
2020/12/31 02:49:43;;;;;;;17.80;7.80;;;;;;;0.32;71.25;98164.15;119966;1143;65578;-89
2020/12/31 02:52:09;;;;;;;13.75;8.25;;;;;;;0.35;71.50;98167.50;119931;1144;65127;-89
2020/12/31 02:54:35;;;;;;;12.93;7.60;;;;;;;0.42;71.41;98168.92;119902;1144;65099;-90
2020/12/31 02:57:01;;;;;;;15.57;7.97;;;;;;;0.44;71.62;98174.11;119888;1144;65228;-90
2020/12/31 02:59:28;;;;;;;23.37;11.60;;;;;;;0.32;71.19;98172.91;119868;1144;65162;-92
2020/12/31 03:01:54;;;;;;;27.25;11.20;;;;;;;0.19;70.46;98177.86;119954;1143;65079;-88
2020/12/31 03:04:21;;;;;;;17.50;8.95;;;;;;;0.07;71.05;98182.80;119921;1145;65095;-91
2020/12/31 03:06:47;;;;;;;23.67;9.90;;;;;;;-0.05;71.48;98182.40;119862;1145;65140;-89
2020/12/31 03:09:13;;;;;;;16.95;8.73;;;;;;;-0.13;71.10;98191.50;119891;1145;65085;-91
2020/12/31 03:11:39;;;;;;;19.33;9.37;;;;;;;-0.22;71.24;98191.91;119941;1143;65049;-93
2020/12/31 03:14:06;;;;;;;19.07;9.80;;;;;;;-0.30;70.89;98182.59;119920;1144;65273;-88
2020/12/31 03:16:33;;;;;;;19.65;9.35;;;;;;;-0.38;71.61;98189.06;119977;1144;65175;-89
2020/12/31 03:19:00;;;;;;;24.73;11.30;;;;;;;-0.44;71.77;98184.95;119847;1144;65217;-90
2020/12/31 03:21:30;;;;;;;26.10;11.45;;;;;;;-0.48;71.94;98191.23;119637;1144;65108;-90
2020/12/31 03:23:58;;;;;;;28.60;12.90;;;;;;;-0.44;72.29;98187.57;119792;1144;65009;-89
2020/12/31 03:26:25;;;;;;;41.77;16.37;;;;;;;-0.40;71.68;98181.26;119776;1145;65114;-91
2020/12/31 03:28:52;;;;;;;41.23;17.07;;;;;;;-0.37;71.58;98183.77;119787;1144;65104;-87
2020/12/31 03:31:20;;;;;;;47.47;20.43;;;;;;;-0.38;71.68;98187.31;119710;1144;65203;-94
2020/12/31 03:33:46;;;;;;;28.33;14.43;;;;;;;-0.43;71.27;98191.05;119862;1145;65182;-90
2020/12/31 03:36:13;;;;;;;24.80;10.70;;;;;;;-0.50;72.07;98184.35;119891;1144;65092;-89
2020/12/31 03:38:39;;;;;;;20.63;10.30;;;;;;;-0.50;72.34;98187.83;119925;1144;65101;-91
2020/12/31 03:41:05;;;;;;;21.95;11.70;;;;;;;-0.43;72.41;98188.42;119931;1143;65094;-90
2020/12/31 03:43:31;;;;;;;19.10;9.80;;;;;;;-0.33;72.17;98187.10;119880;1144;65095;-89
2020/12/31 03:45:58;;;;;;;22.00;11.47;;;;;;;-0.35;72.30;98195.05;119861;1144;65105;-91
2020/12/31 03:48:24;;;;;;;22.70;11.93;;;;;;;-0.41;71.89;98190.05;119924;1144;65095;-89
2020/12/31 03:50:50;;;;;;;18.95;11.45;;;;;;;-0.42;71.81;98198.84;119940;1144;65175;-91
2020/12/31 03:53:17;;;;;;;23.80;11.20;;;;;;;-0.43;71.80;98199.77;119958;1144;65557;-92
2020/12/31 03:55:43;;;;;;;19.60;10.93;;;;;;;-0.45;71.17;98195.48;119962;1144;65111;-90
2020/12/31 03:58:09;;;;;;;22.73;11.80;;;;;;;-0.43;71.64;98201.53;119870;1144;65187;-89
2020/12/31 04:00:35;;;;;;;24.53;12.33;;;;;;;-0.47;72.30;98192.92;119906;1143;65182;-90
2020/12/31 04:03:02;;;;;;;27.85;12.68;;;;;;;-0.47;72.16;98205.19;119929;1144;65117;-88
2020/12/31 04:05:28;;;;;;;23.10;12.00;;;;;;;-0.52;72.34;98194.87;119839;1144;65089;-91
2020/12/31 04:07:54;;;;;;;27.03;12.60;;;;;;;-0.55;71.91;98201.12;119894;1144;65557;-91
2020/12/31 04:10:21;;;;;;;26.13;13.70;;;;;;;-0.49;72.52;98200.02;119854;1144;65098;-90
2020/12/31 04:12:47;;;;;;;25.43;12.87;;;;;;;-0.49;71.99;98197.39;119946;1142;65175;-87
2020/12/31 04:15:13;;;;;;;22.23;11.83;;;;;;;-0.49;71.88;98200.02;119884;1144;65181;-91
2020/12/31 04:17:40;;;;;;;27.10;13.23;;;;;;;-0.42;72.72;98201.47;119952;1143;65206;-90
2020/12/31 04:20:06;;;;;;;23.70;12.78;;;;;;;-0.34;72.35;98199.37;119914;1144;65028;-90
2020/12/31 04:22:33;;;;;;;38.13;16.40;;;;;;;-0.23;72.89;98205.95;119894;1144;65069;-89
2020/12/31 04:24:59;;;;;;;42.80;17.03;;;;;;;-0.15;72.78;98203.84;119923;1144;65101;-88
2020/12/31 04:27:26;;;;;;;28.83;14.27;;;;;;;-0.12;72.84;98209.83;119927;1144;65129;-88
2020/12/31 04:29:52;;;;;;;27.05;13.32;;;;;;;-0.06;72.67;98219.22;119895;1144;65091;-90
2020/12/31 04:32:19;;;;;;;23.00;13.05;;;;;;;-0.07;72.08;98220.11;119971;1143;65066;-93
2020/12/31 04:34:45;;;;;;;37.67;16.97;;;;;;;-0.14;71.94;98218.66;119892;1144;65156;-92
2020/12/31 04:37:12;;;;;;;33.37;15.43;;;;;;;-0.25;71.97;98213.89;119902;1144;65524;-90
2020/12/31 04:39:38;;;;;;;24.00;13.43;;;;;;;-0.35;71.91;98220.42;119916;1143;65200;-93
2020/12/31 04:42:04;;;;;;;25.70;15.15;;;;;;;-0.44;71.97;98216.42;119980;1144;65143;-88
2020/12/31 04:44:31;;;;;;;23.10;13.63;;;;;;;-0.44;72.70;98229.54;119862;1143;65082;-90
2020/12/31 04:46:58;;;;;;;26.87;14.83;;;;;;;-0.43;71.81;98228.62;119915;1144;65092;-93
2020/12/31 04:49:35;;;;;;;27.07;15.23;;;;;;;-0.41;73.08;98228.55;119912;1144;65006;-88
2020/12/31 04:52:03;;;;;;;28.70;15.10;;;;;;;-0.35;72.61;98229.15;119999;1144;65099;-89
2020/12/31 04:54:31;;;;;;;28.20;15.13;;;;;;;-0.28;73.00;98230.59;119968;1144;65478;-88
2020/12/31 04:56:57;;;;;;;32.80;16.15;;;;;;;-0.20;73.02;98229.42;119946;1144;66714;-89
2020/12/31 04:59:24;;;;;;;35.50;17.67;;;;;;;-0.11;72.93;98229.91;119901;1144;65139;-90
2020/12/31 05:01:50;;;;;;;34.33;17.50;;;;;;;0.02;73.50;98230.23;119873;1144;65191;-89
2020/12/31 05:04:16;;;;;;;33.00;18.83;;;;;;;0.10;74.34;98238.63;119935;1143;65187;-90
2020/12/31 05:06:44;;;;;;;29.35;17.60;;;;;;;0.16;72.54;98237.52;119865;1144;65078;-89
2020/12/31 05:09:19;;;;;;;37.27;19.27;;;;;;;0.14;72.35;98241.98;119889;1144;65248;-90
2020/12/31 05:11:53;;;;;;;33.40;17.73;;;;;;;0.13;73.16;98241.13;119862;1143;65117;-91
2020/12/31 05:14:36;;;;;;;31.43;16.80;;;;;;;0.11;72.92;98242.95;119953;1144;65085;-90
2020/12/31 05:17:15;;;;;;;37.17;20.17;;;;;;;0.10;72.71;98241.25;119936;1144;65114;-90
2020/12/31 05:19:42;;;;;;;42.03;20.17;;;;;;;0.05;73.07;98247.61;119912;1144;65111;-90
2020/12/31 05:22:20;;;;;;;40.60;20.30;;;;;;;-0.04;72.99;98251.49;119904;1144;65198;-92
2020/12/31 05:24:51;;;;;;;40.70;17.60;;;;;;;-0.15;72.45;98257.18;119939;1143;65111;-92
2020/12/31 05:27:24;;;;;;;44.23;20.70;;;;;;;-0.20;72.41;98258.28;119961;1144;65111;-90
2020/12/31 05:30:04;;;;;;;42.90;21.27;;;;;;;-0.31;72.62;98254.34;119988;1143;65150;-92
2020/12/31 05:32:35;;;;;;;40.37;20.73;;;;;;;-0.41;72.54;98255.63;119942;1144;65079;-93
2020/12/31 05:35:13;;;;;;;38.40;20.70;;;;;;;-0.43;73.36;98251.38;119943;1144;65162;-91
2020/12/31 05:37:39;;;;;;;35.75;19.90;;;;;;;-0.49;73.59;98260.34;119913;1144;65171;-92
2020/12/31 05:40:08;;;;;;;37.80;19.70;;;;;;;-0.50;73.02;98256.02;119908;1144;65089;-91
2020/12/31 05:42:37;;;;;;;38.05;22.05;;;;;;;-0.52;73.51;98255.20;119998;1143;65095;-91
2020/12/31 05:45:18;;;;;;;47.93;26.93;;;;;;;-0.50;73.60;98256.02;120004;1144;65175;-91
2020/12/31 05:47:54;;;;;;;49.13;25.47;;;;;;;-0.43;73.55;98259.24;119902;1144;65636;-91
2020/12/31 05:50:24;;;;;;;38.20;21.57;;;;;;;-0.33;74.09;98248.29;119876;1144;65124;-90
2020/12/31 05:52:52;;;;;;;34.35;19.70;;;;;;;-0.23;73.42;98258.42;119921;1143;65097;-91
2020/12/31 05:55:21;;;;;;;32.40;17.73;;;;;;;-0.16;73.14;98258.10;119969;1143;65044;-89
2020/12/31 05:57:54;;;;;;;41.10;23.10;;;;;;;-0.08;72.95;98265.65;119888;1144;65060;-88
2020/12/31 06:00:24;;;;;;;40.87;21.43;;;;;;;-0.04;73.58;98265.47;119941;1144;65105;-92
2020/12/31 06:03:00;;;;;;;34.05;19.90;;;;;;;0.06;73.97;98260.66;119965;1143;65065;-90
2020/12/31 06:05:29;;;;;;;33.60;19.70;;;;;;;0.16;73.95;98272.50;119883;1144;65616;-94
2020/12/31 06:07:58;;;;;;;31.53;19.10;;;;;;;0.23;73.38;98275.70;119970;1143;65245;-90
2020/12/31 06:10:26;;;;;;;39.20;19.63;;;;;;;0.25;73.21;98280.00;119961;1144;65094;-90
2020/12/31 06:13:27;;;;;;;33.40;19.25;;;;;;;0.23;73.58;98276.56;119858;1144;65159;-89
2020/12/31 06:16:03;;;;;;;33.50;20.05;;;;;;;0.24;73.32;98280.04;119913;1144;65069;-87
2020/12/31 06:18:33;;;;;;;29.07;17.57;;;;;;;0.23;73.68;98279.19;119935;1144;65166;-94
2020/12/31 06:21:01;;;;;;;38.97;19.97;;;;;;;0.20;73.88;98281.11;119931;1144;65017;-90
2020/12/31 06:23:37;;;;;;;37.77;20.77;;;;;;;0.18;73.43;98289.02;120003;1143;65149;-93
2020/12/31 06:26:13;;;;;;;36.23;20.63;;;;;;;0.14;73.18;98284.84;119976;1144;65100;-88
2020/12/31 06:28:45;;;;;;;36.63;19.07;;;;;;;0.11;73.13;98286.73;119940;1144;65089;-89
2020/12/31 06:31:12;;;;;;;34.80;19.37;;;;;;;0.11;73.69;98284.11;119891;1143;65161;-88
2020/12/31 06:33:44;;;;;;;38.13;20.40;;;;;;;0.08;72.79;98289.50;119890;1144;65488;-94
2020/12/31 06:36:12;;;;;;;37.43;21.37;;;;;;;0.01;72.59;98281.03;119919;1144;65126;-90
2020/12/31 06:38:49;;;;;;;37.00;20.73;;;;;;;-0.06;73.13;98282.20;119917;1144;65097;-93
2020/12/31 06:41:31;;;;;;;34.77;19.13;;;;;;;-0.14;72.74;98285.13;119928;1144;65481;-92
2020/12/31 06:44:09;;;;;;;32.90;18.73;;;;;;;-0.15;73.09;98293.06;119914;1144;65175;-92
2020/12/31 06:46:40;;;;;;;33.70;18.63;;;;;;;-0.19;73.61;98294.09;119954;1143;65070;-92
2020/12/31 06:49:08;;;;;;;37.93;19.90;;;;;;;-0.22;72.59;98294.23;119926;1144;65098;-91
2020/12/31 06:51:34;;;;;;;36.30;19.10;;;;;;;-0.22;73.89;98297.71;119919;1143;65398;-92
2020/12/31 06:54:01;;;;;;;34.37;19.63;;;;;;;-0.15;74.01;98293.92;119922;1144;65081;-89
2020/12/31 06:56:47;;;;;;;34.35;18.35;;;;;;;-0.08;72.99;98299.77;119858;1144;65185;-88
2020/12/31 06:59:35;;;;;;;34.03;20.27;;;;;;;-0.08;74.11;98299.77;119906;1144;65100;-90
2020/12/31 07:02:11;;;;;;;31.10;18.57;;;;;;;-0.03;72.95;98303.06;119914;1143;65092;-91
2020/12/31 07:04:39;;;;;;;31.90;18.50;;;;;;;0.02;73.76;98301.11;119855;1144;65178;-92
2020/12/31 07:07:18;;;;;;;34.07;19.50;;;;;;;0.02;73.16;98301.11;119959;1143;65067;-91
2020/12/31 07:09:56;;;;;;;36.45;18.35;;;;;;;0.06;73.12;98302.67;119975;1143;65079;-90
2020/12/31 07:12:32;;;;;;;29.27;17.40;;;;;;;0.05;72.89;98294.86;119978;1144;65083;-88
2020/12/31 07:14:59;;;;;;;35.87;19.90;;;;;;;0.06;73.52;98293.94;119921;1143;65117;-90
2020/12/31 07:17:33;;;;;;;46.80;21.90;;;;;;;0.08;73.17;98292.98;119886;1144;65572;-89
2020/12/31 07:20:01;;;;;;;45.38;22.17;;;;;;;0.11;73.83;98298.08;119937;1143;65180;-89
2020/12/31 07:22:29;;;;;;;44.13;23.80;;;;;;;0.13;73.01;98306.77;119957;1143;65204;-91
2020/12/31 07:25:11;;;;;;;49.93;24.50;;;;;;;0.14;73.14;98299.75;119946;1143;65089;-90
2020/12/31 07:27:40;;;;;;;41.97;20.50;;;;;;;0.15;73.41;98302.30;119981;1144;65101;-90
2020/12/31 07:30:15;;;;;;;44.57;24.90;;;;;;;0.13;73.61;98303.30;119942;1144;65174;-93
2020/12/31 07:33:02;;;;;;;41.70;24.90;;;;;;;0.12;72.84;98305.03;120334;1144;65179;-89
2020/12/31 07:35:31;;;;;;;52.17;28.83;;;;;;;0.12;72.96;98302.41;119904;1144;65159;-90
2020/12/31 07:37:59;;;;;;;64.77;30.90;;;;;;;0.14;72.81;98295.34;119922;1143;65092;-91
2020/12/31 07:40:43;;;;;;;70.73;32.67;;;;;;;0.18;73.37;98302.16;119874;1144;65159;-89
2020/12/31 07:43:13;;;;;;;64.00;29.93;;;;;;;0.20;73.40;98300.34;120266;1144;65062;-88
2020/12/31 07:45:45;;;;;;;57.00;27.70;;;;;;;0.24;73.58;98304.52;119962;1144;65133;-93
2020/12/31 07:48:12;;;;;;;56.50;26.70;;;;;;;0.29;72.94;98304.34;120216;1143;65184;-87
2020/12/31 07:50:38;;;;;;;55.60;26.15;;;;;;;0.34;73.07;98297.12;120007;1143;65181;-91
2020/12/31 07:53:08;;;;;;;46.50;24.70;;;;;;;0.39;73.69;98303.03;119919;1144;65114;-88
2020/12/31 07:55:35;;;;;;;44.13;21.93;;;;;;;0.44;73.02;98300.19;120357;1144;65175;-88
2020/12/31 07:58:06;;;;;;;42.80;23.15;;;;;;;0.52;73.04;98300.73;119954;1144;65092;-89
2020/12/31 08:00:33;;;;;;;49.43;25.70;;;;;;;0.62;73.88;98301.16;120342;1144;65188;-90
2020/12/31 08:03:00;;;;;;;60.23;27.40;;;;;;;0.70;73.27;98293.78;119935;1144;65152;-90
2020/12/31 08:05:27;;;;;;;55.67;27.37;;;;;;;0.78;73.61;98294.32;119957;1143;65104;-88
2020/12/31 08:07:55;;;;;;;58.93;27.43;;;;;;;0.87;73.51;98290.41;119876;1143;65153;-89
2020/12/31 08:10:24;;;;;;;51.97;25.03;;;;;;;1.00;73.71;98292.41;119835;1144;65143;-89
2020/12/31 08:12:59;;;;;;;56.20;25.47;;;;;;;1.15;73.59;98293.51;120317;1143;65084;-90
2020/12/31 08:15:26;;;;;;;;;;;;;;;1.26;72.85;98299.10;120047;1143;65150;-88
2020/12/31 08:17:54;;;;;;;42.40;21.03;;;;;;;1.36;73.50;98291.64;120308;1144;65101;-88
2020/12/31 08:20:24;;;;;;;41.93;22.23;;;;;;;1.46;73.33;98287.64;120030;1143;65105;-88
2020/12/31 08:22:53;;;;;;;98.63;43.13;;;;;;;1.56;72.88;98288.06;119991;1142;65161;-90
2020/12/31 08:25:25;;;;;;;95.85;42.30;;;;;;;1.52;72.25;98294.39;120007;1144;65091;-91
2020/12/31 08:27:55;;;;;;;84.73;36.13;;;;;;;1.49;72.38;98289.28;120354;1144;65169;-91
2020/12/31 08:30:23;;;;;;;82.73;34.00;;;;;;;1.52;73.11;98303.13;119925;1144;65276;-88
2020/12/31 08:32:50;;;;;;;92.80;30.60;;;;;;;1.60;72.86;98301.02;120511;1144;65179;-90
2020/12/31 08:35:24;;;;;;;72.70;29.93;;;;;;;1.71;72.71;98304.89;120038;1144;65068;-88
2020/12/31 08:38:11;;;;;;;69.70;33.23;;;;;;;1.79;72.71;98303.61;119933;1144;65114;-89
2020/12/31 08:40:44;;;;;;;84.67;34.40;;;;;;;1.93;72.77;98304.72;120043;1143;65160;-89
2020/12/31 08:43:24;;;;;;;86.70;35.75;;;;;;;1.96;72.97;98301.91;119995;1144;65169;-91
2020/12/31 08:45:52;;;;;;;65.93;28.43;;;;;;;2.01;72.96;98306.03;120875;1144;65178;-89
2020/12/31 08:48:29;;;;;;;59.67;28.57;;;;;;;2.06;72.57;98305.81;120152;1144;65047;-89
2020/12/31 08:51:07;;;;;;;82.70;36.90;;;;;;;2.11;72.71;98304.66;120284;1143;64992;-89
2020/12/31 08:53:54;;;;;;;93.67;40.70;;;;;;;2.19;72.96;98304.27;119972;1144;65111;-91
2020/12/31 08:56:25;;;;;;;73.13;32.07;;;;;;;2.30;72.83;98298.47;120358;1142;65557;-86
2020/12/31 08:59:15;;;;;;;49.10;24.17;;;;;;;2.42;72.99;98297.84;119967;1144;65091;-88
2020/12/31 09:01:46;;;;;;;60.80;27.73;;;;;;;2.56;72.79;98297.98;119989;1143;65087;-88
2020/12/31 09:04:16;;;;;;;64.30;30.55;;;;;;;2.70;72.75;98291.98;120294;1143;65147;-87
2020/12/31 09:06:47;;;;;;;73.47;33.23;;;;;;;2.83;72.62;98298.31;120023;1143;65004;-88
2020/12/31 09:09:22;;;;;;;65.80;31.00;;;;;;;2.92;72.59;98292.54;120437;1144;65066;-88
2020/12/31 09:12:08;;;;;;;54.60;27.70;;;;;;;3.03;72.41;98296.41;120062;1143;65248;-89
2020/12/31 09:14:36;;;;;;;50.93;25.87;;;;;;;3.06;72.36;98291.83;120553;1144;65092;-86
2020/12/31 09:17:23;;;;;;;74.33;33.53;;;;;;;3.08;72.19;98283.83;120092;1143;65230;-87
2020/12/31 09:19:56;;;;;;;59.03;27.03;;;;;;;3.18;71.89;98293.80;119971;1144;65066;-89
2020/12/31 09:22:24;;;;;;;56.45;25.55;;;;;;;3.28;72.19;98294.14;119900;1143;65088;-89
2020/12/31 09:24:52;;;;;;;43.50;23.10;;;;;;;3.38;72.16;98289.23;119907;1143;65089;-88
2020/12/31 09:27:24;;;;;;;48.77;24.23;;;;;;;3.47;71.94;98291.34;119954;1144;65248;-88
2020/12/31 09:29:58;;;;;;;47.87;23.93;;;;;;;3.57;72.14;98283.78;119973;1143;65088;-90
2020/12/31 09:32:24;;;;;;;53.70;25.37;;;;;;;3.66;72.23;98285.89;119985;1142;65082;-89
2020/12/31 09:34:51;;;;;;;76.03;34.67;;;;;;;3.72;72.21;98293.47;119930;1143;65047;-90
2020/12/31 09:37:18;;;;;;;49.57;29.80;;;;;;;3.77;71.87;98286.14;119892;1144;65164;-89
2020/12/31 09:39:45;;;;;;;46.55;25.30;;;;;;;3.82;71.81;98284.09;119979;1144;65089;-88
2020/12/31 09:42:12;;;;;;;32.07;18.73;;;;;;;3.84;71.64;98284.84;119928;1144;65188;-89
2020/12/31 09:44:39;;;;;;;39.03;22.67;;;;;;;3.89;72.05;98277.52;119927;1144;65156;-92
2020/12/31 09:47:06;;;;;;;37.47;21.13;;;;;;;3.99;72.26;98276.03;119925;1144;65524;-91
2020/12/31 09:49:33;;;;;;;42.50;24.93;;;;;;;4.11;72.28;98282.40;119947;1144;65216;-90
2020/12/31 09:52:00;;;;;;;38.27;20.10;;;;;;;4.20;71.59;98281.88;119951;1144;65111;-93
2020/12/31 09:54:27;;;;;;;33.00;18.23;;;;;;;4.31;72.14;98273.30;119806;1144;65072;-90
2020/12/31 09:56:54;;;;;;;33.67;18.40;;;;;;;4.34;72.05;98279.27;119969;1143;65223;-91
2020/12/31 09:59:21;;;;;;;98.77;41.17;;;;;;;4.39;71.72;98278.13;119926;1144;65095;-91
2020/12/31 10:01:47;;;;;;;446.37;153.07;;;;;;;4.39;71.67;98279.01;119909;1144;65146;-91
2020/12/31 10:04:14;;;;;;;480.57;159.03;;;;;;;4.43;71.99;98272.57;119953;1144;65156;-90
2020/12/31 10:06:45;;;;;;;150.47;48.90;;;;;;;4.51;71.69;98275.59;119891;1144;65127;-90
2020/12/31 10:09:14;;;;;;;89.75;47.55;;;;;;;4.50;71.12;98275.70;119967;1143;65049;-90
2020/12/31 10:11:54;;;;;;;117.73;59.77;;;;;;;4.56;71.64;98265.61;120029;1144;65068;-91
2020/12/31 10:14:21;;;;;;;248.43;121.13;;;;;;;4.60;71.09;98264.48;119997;1143;65088;-89
2020/12/31 10:16:47;;;;;;;52.90;29.87;;;;;;;4.66;70.77;98265.06;119918;1144;65159;-89
2020/12/31 10:19:14;;;;;;;131.97;68.37;;;;;;;4.71;70.95;98258.56;119733;1144;65157;-89
2020/12/31 10:21:41;;;;;;;128.27;73.17;;;;;;;4.79;71.45;98256.28;119912;1144;65103;-89
2020/12/31 10:24:07;;;;;;;58.70;31.50;;;;;;;4.89;70.91;98253.91;120379;1144;65076;-90
2020/12/31 10:26:33;;;;;;;52.07;25.70;;;;;;;4.96;70.99;98254.38;120277;1143;65139;-89
2020/12/31 10:29:01;;;;;;;87.27;48.68;;;;;;;5.02;71.24;98246.91;120313;1144;65098;-89
2020/12/31 10:31:28;;;;;;;139.00;76.60;;;;;;;5.13;71.02;98243.59;120028;1144;65284;-89
2020/12/31 10:33:54;;;;;;;185.10;105.97;;;;;;;5.19;70.97;98237.92;120641;1144;65094;-90
2020/12/31 10:36:21;;;;;;;51.35;27.25;;;;;;;5.23;70.84;98235.94;120414;1144;65060;-90
2020/12/31 10:38:47;;;;;;;64.43;33.30;;;;;;;5.24;71.40;98229.70;120378;1143;65108;-90
2020/12/31 10:41:14;;;;;;;50.30;25.90;;;;;;;5.31;71.31;98236.30;120555;1143;65039;-89
2020/12/31 10:43:41;;;;;;;55.48;28.45;;;;;;;5.42;71.33;98239.11;120503;1144;65564;-91
2020/12/31 10:46:07;;;;;;;195.75;99.35;;;;;;;5.53;70.82;98227.81;121396;1144;65063;-89
2020/12/31 10:48:33;;;;;;;285.50;155.83;;;;;;;5.65;71.38;98233.16;120755;1144;65019;-89
2020/12/31 10:51:00;;;;;;;454.77;268.63;;;;;;;5.78;70.84;98227.91;120707;1142;65091;-91
2020/12/31 10:53:26;;;;;;;82.97;48.17;;;;;;;5.85;70.69;98223.05;121132;1143;63810;-90
2020/12/31 10:55:53;;;;;;;54.10;28.32;;;;;;;5.93;71.01;98226.09;120670;1144;65152;-92
2020/12/31 10:58:19;;;;;;;37.37;23.23;;;;;;;6.00;70.51;98215.94;120838;1142;65220;-90
2020/12/31 11:00:46;;;;;;;119.40;67.13;;;;;;;6.07;70.53;98217.22;120562;1144;64929;-89
2020/12/31 11:03:12;;;;;;;78.77;44.77;;;;;;;6.14;70.30;98214.05;120540;1143;65175;-90
2020/12/31 11:05:38;;;;;;;333.40;196.18;;;;;;;6.24;70.40;98206.34;120381;1144;65095;-90
2020/12/31 11:08:05;;;;;;;131.70;76.53;;;;;;;6.35;70.38;98203.78;120510;1143;64996;-89
2020/12/31 11:10:31;;;;;;;238.67;129.90;;;;;;;6.45;70.51;98199.55;120561;1144;65207;-90
2020/12/31 11:12:58;;;;;;;407.30;281.60;;;;;;;6.54;70.55;98200.71;120565;1144;65060;-89
2020/12/31 11:15:25;;;;;;;148.13;88.30;;;;;;;6.61;70.51;98194.02;120534;1144;65268;-91
2020/12/31 11:17:51;;;;;;;126.97;71.87;;;;;;;6.61;69.41;98195.83;120575;1143;65062;-89
2020/12/31 11:20:18;;;;;;;164.83;94.80;;;;;;;6.51;69.17;98187.68;120686;1144;65490;-90
2020/12/31 11:22:45;;;;;;;169.97;102.43;;;;;;;6.49;69.55;98185.14;120557;1144;65041;-91
2020/12/31 11:25:11;;;;;;;101.35;70.35;;;;;;;6.50;69.78;98181.53;120352;1143;65087;-87